Station: Central Arnhem Plateau  

  Atmospheric Gas Attenuation - ITU Rec 676-11   ----------------- dB/100km -----------------
Date Time Temp RH % AH g/m3 Dew Point Wind Direction Speed kph Gust kph Barometer mB Rainfall Since 9am 24GHz 47GHz 76GHz 122GHz 134GHz 241GHz
08/05 12:10 27.4 44 11.58 14.1 26 35 1011.8 0 25.2 26.5 44.1 116.1 117.2 406.1
08/05 12:00 26.7 43 10.88 13.4 24 39 1011.9 0 23.7 25.7 41.9 110.2 109.8 380.0
08/05 11:50 26.9 45 11.52 14 24 28 1012 0 25.1 26.6 44.1 116.2 117.3 406.1
08/05 11:40 27.2 44 11.45 13.9 28 33 1012 0 24.9 26.4 43.7 115.1 116.0 401.6
08/05 11:30 26.9 44 11.26 13.6 28 35 1012.2 0 24.5 26.2 43.2 113.7 114.1 395.1
08/05 11:20 27.1 44 11.39 14.1 24 28 1012.3 0 24.8 26.3 43.6 114.7 115.4 399.7
08/05 11:10 26.4 46 11.45 13.9 24 32 1012.4 0 24.9 26.6 44.2 116.3 117.2 405.8
08/05 11:00 26.2 46 11.32 13.7 24 37 1012.5 0 24.7 26.5 43.8 115.3 115.9 401.3
08/05 10:50 26.1 47 11.51 13.9 26 30 1012.5 0 25.1 26.8 44.6 117.3 118.4 409.9
08/05 10:40 25.6 48 11.43 13.8 26 28 1012.6 0 24.9 26.8 44.5 117.3 118.1 409.1
08/05 10:30 25.3 48 11.24 13.5 30 39 1012.7 0 24.6 26.6 44.0 115.8 116.3 402.4
08/05 10:20 24.6 49 11.03 13.2 26 30 1012.6 0 24.2 26.5 43.6 114.7 114.7 396.8
08/05 10:10 24.7 50 11.32 13.6 30 35 1012.8 0 24.8 26.9 44.6 117.5 118.2 409.0
08/05 10:00 24.2 51 11.22 13.4 26 35 1012.9 0 24.6 26.9 44.5 117.2 117.7 407.2
08/05 09:50 23.8 51 10.97 13.1 24 30 1012.8 0 24.1 26.7 43.8 115.3 115.1 398.3
08/05 09:40 23.2 51 10.6 12.5 28 32 1012.9 0 23.3 26.3 42.7 112.4 111.4 385.1
08/05 09:30 23.5 52 11 13.1 24 35 1012.9 0 24.2 26.8 44.1 116.0 115.9 401.1
08/05 09:20 22.9 53 10.83 12.8 24 30 1012.9 0 23.8 26.7 43.8 115.1 114.7 396.6
08/05 09:10 22.9 55 11.24 13.4 17 20 1012.9 0 24.7 27.4 45.3 119.4 119.9 414.8
08/05 09:00 22.5 55 10.98 13 20 28 1012.8 0 24.2 27.1 44.5 117.3 117.2 405.3
08/05 08:50 21.7 58 11.06 13.1 19 24 1012.8 0 24.4 27.5 45.3 119.3 119.4 413.0
08/05 08:40 21.3 59 11 13 22 26 1012.8 0 24.3 27.5 45.3 119.3 119.2 412.4
08/05 08:30 21.1 61 11.24 13.3 20 26 1012.8 0 24.8 27.9 46.4 122.1 122.7 424.3
08/05 08:20 20.3 62 10.9 12.8 24 28 1012.8 0 24.1 27.6 45.5 119.7 119.5 413.1
08/05 08:10 20.4 63 11.14 13.1 17 20 1012.6 0 24.6 28.0 46.4 122.1 122.4 423.5
08/05 08:00 19.8 64 10.93 12.8 22 32 1012.8 0 24.2 27.8 45.9 120.8 120.6 417.1
08/05 07:50 19.6 65 10.97 12.8 20 26 1012.8 0 24.3 28.0 46.2 121.5 121.5 420.0
08/05 07:40 19.4 67 11.18 13.1 19 24 1012.6 0 24.8 28.4 47.1 124.1 124.6 430.8
08/05 07:30 19.1 69 11.31 13.3 19 26 1012.5 0 25.1 28.7 47.8 126.0 126.8 438.5
08/05 07:20 18.8 71 11.43 13.4 20 24 1012.4 0 25.4 29.0 48.5 127.8 128.9 445.8
08/05 07:10 18.5 73 11.55 13.6 19 20 1012.2 0 25.6 29.3 49.2 129.6 131.0 453.2
08/05 07:00 18.5 73 11.55 13.6 17 24 1012.1 0 25.6 29.3 49.2 129.5 131.0 453.2
08/05 06:50 18.4 74 11.64 13.7 15 19 1012 0 25.8 29.4 49.6 130.7 132.4 458.0
08/05 06:40 18.3 75 11.73 13.8 15 20 1011.9 0 26.0 29.6 50.0 131.9 133.8 462.9
08/05 06:30 18.4 76 11.95 14.1 15 20 1011.7 0 26.5 29.9 50.9 134.1 136.7 472.9
08/05 06:20 18.4 77 12.11 14.3 15 20 1011.7 0 26.8 30.2 51.6 136.0 138.9 480.6
08/05 06:10 18.6 77 12.25 14.5 15 17 1011.6 0 27.1 30.4 52.0 137.2 140.5 486.2
08/05 06:00 18.6 78 12.41 14.7 17 20 1011.5 0 27.5 30.7 52.7 139.0 142.7 494.0
08/05 05:50 18.7 78 12.49 14.8 15 19 1011.5 0 27.6 30.8 53.0 139.7 143.6 497.2
08/05 05:40 18.5 79 12.5 14.8 11 15 1011.3 0 27.7 30.8 53.2 140.2 144.1 498.9
08/05 05:30 18.4 79 12.42 14.7 13 17 1011.2 0 27.5 30.7 52.9 139.4 143.2 495.6
08/05 05:20 18.3 80 12.51 14.8 13 17 1011.3 0 27.7 30.9 53.3 140.7 144.7 500.7
08/05 05:10 18.3 79 12.35 14.6 11 11 1011.3 0 27.4 30.7 52.7 138.8 142.4 492.9
08/05 05:00 18.4 79 12.42 14.7 11 15 1011.3 0 27.5 30.7 52.9 139.4 143.2 495.7
08/05 04:50 18.6 78 12.41 14.7 11 13 1011.2 0 27.5 30.6 52.7 139.0 142.7 493.8
08/05 04:40 18.7 78 12.49 14.8 15 19 1011.2 0 27.6 30.7 53.0 139.7 143.6 497.1
08/05 04:30 18.8 78 12.56 14.9 13 17 1011.2 0 27.8 30.8 53.2 140.3 144.4 499.9
08/05 04:20 18.8 78 12.56 14.9 15 17 1011.3 0 27.8 30.8 53.2 140.3 144.4 500.0
08/05 04:10 18.8 78 12.56 14.9 15 20 1011.3 0 27.8 30.8 53.2 140.3 144.4 500.0
08/05 04:00 18.8 78 12.56 14.9 13 17 1011.4 0 27.8 30.8 53.2 140.3 144.4 500.0
08/05 03:50 18.8 78 12.56 14.9 15 17 1011.4 0 27.8 30.8 53.2 140.3 144.4 500.0
08/05 03:40 18.9 77 12.47 14.8 11 15 1011.6 0 27.6 30.7 52.8 139.1 143.0 495.0
08/05 03:30 19.2 76 12.53 14.9 13 17 1011.6 0 27.7 30.7 52.8 139.3 143.3 496.0
08/05 03:20 19.4 75 12.51 14.9 13 15 1011.7 0 27.6 30.6 52.6 138.7 142.6 493.8
08/05 03:10 19.7 74 12.56 14.9 15 17 1011.8 0 27.7 30.5 52.6 138.8 142.8 494.4
08/05 03:00 19.7 74 12.56 14.9 13 17 1011.8 0 27.7 30.5 52.6 138.8 142.8 494.4
08/05 02:50 19.7 74 12.56 14.9 11 13 1011.8 0 27.7 30.5 52.6 138.8 142.8 494.4
08/05 02:40 19.7 74 12.56 14.9 13 15 1011.9 0 27.7 30.5 52.6 138.8 142.8 494.4
08/05 02:30 19.7 74 12.56 14.9 13 17 1011.9 0 27.7 30.5 52.6 138.8 142.8 494.4
08/05 02:20 19.8 73 12.47 14.8 11 13 1012 0 27.5 30.4 52.2 137.6 141.4 489.4
08/05 02:10 19.8 73 12.47 14.8 13 15 1012 0 27.5 30.4 52.2 137.6 141.4 489.4
08/05 02:00 19.9 73 12.54 14.9 13 19 1012.1 0 27.6 30.4 52.4 138.2 142.2 492.2
08/05 01:50 20.1 72 12.51 14.9 15 19 1012.1 0 27.6 30.3 52.2 137.5 141.4 489.5
08/05 01:40 20.1 72 12.51 14.9 15 17 1012.3 0 27.6 30.3 52.2 137.5 141.4 489.6
08/05 01:30 20.1 72 12.51 14.9 15 17 1012.4 0 27.6 30.3 52.2 137.6 141.4 489.6
08/05 01:20 20.2 72 12.59 15 15 19 1012.5 0 27.7 30.4 52.5 138.3 142.3 492.9
08/05 01:10 20.3 71 12.49 14.9 13 17 1012.6 0 27.5 30.2 52.0 137.0 140.8 487.5
08/05 01:00 20.5 71 12.63 15.1 13 19 1012.8 0 27.8 30.4 52.4 138.2 142.4 493.0
08/05 00:50 20.6 70 12.53 14.9 13 17 1012.8 0 27.6 30.2 51.9 137.0 140.8 487.6
08/05 00:40 20.6 70 12.53 14.9 15 19 1013 0 27.6 30.2 52.0 137.0 140.8 487.7
08/05 00:29 20.7 69 12.42 14.8 13 15 1013.1 0 27.3 30.0 51.4 135.6 139.1 481.8
08/05 00:20 20.8 69 12.49 14.9 13 15 1013.2 0 27.5 30.1 51.7 136.2 139.9 484.6
08/05 00:10 21.1 68 12.53 15 13 17 1013.3 0 27.5 30.1 51.6 136.1 139.9 484.7
08/05 00:00 21.2 67 12.42 14.8 15 20 1013.4 0 27.3 29.8 51.1 134.8 138.3 478.9
07/05 23:50 21.4 66 12.37 14.8 15 19 1013.5 0 27.2 29.7 50.8 133.9 137.3 475.3
07/05 23:40 21.5 66 12.44 14.9 15 19 1013.5 0 27.3 29.8 51.0 134.5 138.0 478.0
07/05 23:30 21.6 65 12.33 14.7 17 22 1013.5 0 27.1 29.6 50.5 133.1 136.4 472.2
07/05 23:20 21.7 65 12.4 14.8 17 20 1013.6 0 27.2 29.7 50.7 133.7 137.1 474.9
07/05 23:10 21.7 65 12.4 14.8 13 17 1013.7 0 27.2 29.7 50.7 133.7 137.1 475.0
07/05 23:00 21.7 64 12.21 14.6 17 20 1013.7 0 26.8 29.3 50.0 131.7 134.6 466.1
07/05 22:50 21.9 63 12.16 14.5 13 17 1013.7 0 26.7 29.2 49.6 130.8 133.6 462.5
07/05 22:40 21.9 63 12.16 14.5 17 22 1013.7 0 26.7 29.2 49.6 130.8 133.6 462.5
07/05 22:30 22 62 12.03 14.4 13 19 1013.8 0 26.4 29.0 49.0 129.2 131.7 456.0
07/05 22:20 22 61 11.84 14.1 13 15 1013.8 0 26.0 28.6 48.3 127.2 129.2 447.2
07/05 22:10 22.1 60 11.71 14 11 15 1013.9 0 25.7 28.4 47.7 125.6 127.3 440.7
07/05 22:00 22.3 59 11.65 13.9 13 19 1013.9 0 25.6 28.2 47.3 124.7 126.2 436.8
07/05 21:50 22.4 59 11.72 14 13 15 1013.9 0 25.7 28.3 47.6 125.3 127.0 439.5
07/05 21:40 22.5 58 11.58 13.8 11 13 1013.9 0 25.4 28.1 46.9 123.6 125.0 432.6
07/05 21:30 22.6 58 11.65 13.9 11 17 1013.9 0 25.6 28.1 47.2 124.2 125.7 435.2
07/05 21:20 22.6 57 11.45 13.7 11 11 1013.9 0 25.2 27.8 46.4 122.1 123.1 426.1
07/05 21:10 22.8 57 11.58 13.8 11 13 1013.8 0 25.4 28.0 46.8 123.2 124.5 430.9
07/05 21:00 22.9 57 11.65 13.9 9 13 1013.8 0 25.6 28.1 47.0 123.7 125.2 433.5
07/05 20:50 22.9 56 11.44 13.7 7 11 1013.7 0 25.1 27.7 46.2 121.5 122.5 424.0
07/05 20:40 23.2 55 11.43 13.7 11 13 1013.6 0 25.1 27.6 45.9 121.0 121.9 421.9
07/05 20:30 23.4 54 11.35 13.8 11 13 1013.6 0 24.9 27.4 45.5 119.8 120.6 417.3
07/05 20:20 23.6 54 11.48 13.8 11 13 1013.5 0 25.2 27.6 45.9 120.9 121.9 422.0
07/05 20:10 23.7 53 11.34 13.6 11 13 1013.3 0 24.9 27.3 45.3 119.2 120.0 415.2
07/05 20:00 23.9 52 11.25 13.7 11 15 1013.2 0 24.7 27.1 44.8 118.0 118.5 410.1
07/05 19:50 24.1 52 11.38 13.6 11 13 1013.1 0 24.9 27.2 45.2 119.0 119.8 414.8
07/05 19:40 24.3 52 11.51 13.8 13 15 1012.9 0 25.2 27.4 45.6 120.0 121.2 419.4

Last Refresh: 08-May-2026 12:10:21

Bureau of Meteorology